CMB845 Details

Departure: NAS Sigonella (LICZ)
Arrival: Bahrain International Airport (OBBI)
Route: ERNAM5U ERNAM EMLAR N4 SALUN Q680 DBA UM872 WEJ UL604 KFA M691 LADNA LADNA1
Notes: USTRANSCOM CONTRACT FLIGHT


Current Weather Information
LICZ 212155Z 33003KT 9999 FEW020 14/14 Q1019
OBBI 212300Z 19005KT CAVOK 31/22 Q1009 NOSIG